Time;durP1;ratioP1;P1;durP2;ratioP2;P2;SDS_P1;SDS_P2;PMS_P1;PMS_P2;Temp;Humidity;BMP_temperature;BMP_pressure;BME280_temperature;BME280_humidity;BME280_pressure;Samples;Min_cycle;Max_cycle;Signal;HPM_P1;HPM_P2
2021/12/29 00:03:09;;;;;;;4.13;1.23;;;10.50;52.10;;;;;;10357779;28;20226;-76
2021/12/29 00:08:12;;;;;;;2.23;1.03;;;10.60;51.80;;;;;;10345699;28;20794;-76
2021/12/29 00:13:19;;;;;;;1.90;1.10;;;10.60;51.70;;;;;;10349358;28;20276;-76
2021/12/29 00:18:22;;;;;;;2.77;1.43;;;10.70;51.70;;;;;;10352506;28;20254;-76
2021/12/29 00:23:26;;;;;;;2.17;1.20;;;10.70;51.50;;;;;;10352021;28;20232;-76
2021/12/29 00:28:31;;;;;;;4.73;1.60;;;10.80;51.50;;;;;;10352675;28;20238;-76
2021/12/29 00:33:34;;;;;;;6.10;1.60;;;10.80;51.40;;;;;;10348477;28;20234;-76
2021/12/29 00:38:42;;;;;;;3.23;1.40;;;10.80;51.30;;;;;;10350941;28;20234;-76
2021/12/29 00:43:47;;;;;;;5.80;1.73;;;10.80;51.30;;;;;;10345919;28;20242;-77
2021/12/29 00:48:51;;;;;;;6.10;1.80;;;10.80;51.30;;;;;;10351853;28;20261;-77
2021/12/29 00:53:54;;;;;;;5.13;1.80;;;10.90;51.40;;;;;;10351371;28;20238;-76
2021/12/29 00:58:59;;;;;;;7.10;1.73;;;10.90;51.20;;;;;;10348478;28;20245;-76
2021/12/29 01:04:03;;;;;;;6.10;2.03;;;10.90;51.20;;;;;;10345034;28;20584;-75
2021/12/29 01:09:06;;;;;;;6.23;1.97;;;10.90;51.10;;;;;;10349819;28;20225;-75
2021/12/29 01:14:11;;;;;;;5.23;1.90;;;10.90;51.10;;;;;;10351291;28;20230;-76
2021/12/29 01:19:16;;;;;;;6.43;1.80;;;10.90;51.10;;;;;;10351158;28;20218;-76
2021/12/29 01:24:21;;;;;;;4.20;1.53;;;10.90;51.10;;;;;;10349976;28;20236;-76
2021/12/29 01:29:28;;;;;;;4.63;1.70;;;10.90;51.00;;;;;;10345101;28;20230;-76
2021/12/29 01:34:32;;;;;;;4.20;1.53;;;10.90;50.90;;;;;;10359002;28;20667;-76
2021/12/29 01:39:35;;;;;;;4.30;1.57;;;11.00;50.90;;;;;;10356909;28;20230;-76
2021/12/29 01:44:40;;;;;;;7.37;1.77;;;11.00;50.70;;;;;;10352555;28;20235;-76
2021/12/29 01:49:44;;;;;;;5.67;1.90;;;11.00;50.70;;;;;;10355143;28;20229;-76
2021/12/29 01:54:48;;;;;;;4.97;2.00;;;11.00;50.60;;;;;;10353890;28;20226;-76
2021/12/29 01:59:52;;;;;;;5.10;1.80;;;11.00;50.70;;;;;;10354496;28;20261;-76
2021/12/29 02:04:55;;;;;;;6.77;2.07;;;11.00;50.70;;;;;;10358471;28;20239;-76
2021/12/29 02:09:59;;;;;;;4.87;1.90;;;11.00;50.70;;;;;;10354105;28;20227;-76
2021/12/29 02:15:04;;;;;;;5.07;1.70;;;11.00;50.60;;;;;;10351231;28;20222;-76
2021/12/29 02:20:11;;;;;;;4.27;1.83;;;11.00;50.60;;;;;;10354013;28;20225;-71
2021/12/29 02:25:34;;;;;;;6.17;1.80;;;11.00;51.30;;;;;;10354049;28;20323;-71
2021/12/29 02:30:37;;;;;;;5.37;1.70;;;11.00;50.80;;;;;;10357368;28;20226;-71
2021/12/29 02:35:43;;;;;;;5.87;1.90;;;11.00;50.70;;;;;;10354494;28;20749;-71
2021/12/29 02:40:50;;;;;;;6.03;1.73;;;11.00;50.50;;;;;;10357960;28;20234;-71
2021/12/29 02:45:59;;;;;;;8.10;2.03;;;11.10;50.50;;;;;;10355846;28;20748;-71
2021/12/29 02:51:07;;;;;;;3.10;1.30;;;11.10;50.60;;;;;;10356458;28;20301;-71
2021/12/29 02:56:10;;;;;;;4.13;1.80;;;11.10;50.40;;;;;;10352790;28;20234;-71
2021/12/29 03:01:15;;;;;;;4.03;1.60;;;11.10;50.40;;;;;;10357666;28;20223;-71
2021/12/29 03:06:20;;;;;;;4.30;1.63;;;11.10;50.40;;;;;;10353843;28;20789;-71
2021/12/29 03:11:24;;;;;;;7.47;2.00;;;11.10;50.40;;;;;;10357571;28;20235;-71
2021/12/29 03:16:27;;;;;;;5.37;1.63;;;11.10;50.50;;;;;;10352091;28;20234;-71
2021/12/29 03:21:33;;;;;;;4.83;1.50;;;11.10;50.40;;;;;;10347823;28;20230;-71
2021/12/29 03:26:36;;;;;;;3.10;1.40;;;11.10;50.40;;;;;;10355041;28;20234;-71
2021/12/29 03:31:42;;;;;;;3.23;1.40;;;11.10;50.40;;;;;;10352181;28;20229;-71
2021/12/29 03:36:46;;;;;;;3.13;1.30;;;11.10;50.40;;;;;;10351197;28;20233;-71
2021/12/29 03:41:50;;;;;;;3.63;1.43;;;11.10;50.40;;;;;;10351860;28;20663;-71
2021/12/29 03:46:53;;;;;;;3.67;1.60;;;11.10;50.40;;;;;;10347426;28;20227;-71
2021/12/29 03:51:59;;;;;;;5.40;1.43;;;11.10;50.40;;;;;;10348305;28;20230;-71
2021/12/29 03:57:03;;;;;;;2.57;1.13;;;11.10;50.40;;;;;;10352485;28;20757;-71
2021/12/29 04:02:06;;;;;;;3.50;1.10;;;11.10;50.40;;;;;;10353081;28;20229;-71
2021/12/29 04:07:11;;;;;;;3.70;1.27;;;11.10;50.40;;;;;;10354641;28;20226;-71
2021/12/29 04:12:14;;;;;;;5.07;1.37;;;11.10;50.20;;;;;;10347531;28;20734;-71
2021/12/29 04:17:24;;;;;;;3.50;1.20;;;11.10;50.40;;;;;;10352379;28;20234;-71
2021/12/29 04:22:29;;;;;;;3.43;1.30;;;11.10;50.40;;;;;;10350523;28;20230;-71
2021/12/29 04:27:32;;;;;;;2.90;1.10;;;11.10;50.40;;;;;;10351882;28;20230;-71
2021/12/29 04:32:35;;;;;;;3.63;1.50;;;11.10;50.20;;;;;;10351660;28;20218;-71
2021/12/29 04:37:40;;;;;;;2.63;1.20;;;11.10;50.20;;;;;;10348146;28;20427;-71
2021/12/29 04:42:43;;;;;;;1.83;1.00;;;11.10;50.20;;;;;;10343678;28;20252;-71
2021/12/29 04:47:48;;;;;;;2.77;1.10;;;11.20;50.30;;;;;;10353799;28;20226;-71
2021/12/29 04:52:55;;;;;;;2.47;1.10;;;11.20;50.10;;;;;;10353228;28;20595;-71
2021/12/29 04:58:00;;;;;;;2.00;1.00;;;11.20;50.10;;;;;;10348361;28;20238;-71
2021/12/29 05:03:04;;;;;;;2.00;1.00;;;11.20;50.10;;;;;;10347757;28;20228;-71
2021/12/29 05:08:28;;;;;;;1.13;0.83;;;11.20;50.00;;;;;;10357624;28;20899;-71
2021/12/29 05:13:32;;;;;;;3.10;1.30;;;11.20;49.80;;;;;;10358430;28;20253;-71
2021/12/29 05:18:37;;;;;;;1.13;0.80;;;11.20;49.90;;;;;;10357043;28;20222;-71
2021/12/29 05:23:42;;;;;;;1.60;1.00;;;11.20;49.90;;;;;;10353909;28;20442;-71
2021/12/29 05:28:45;;;;;;;2.23;0.80;;;11.20;49.80;;;;;;10355714;28;20242;-72
2021/12/29 05:33:49;;;;;;;1.00;0.80;;;11.20;49.70;;;;;;10356330;28;20230;-72
2021/12/29 05:38:55;;;;;;;1.70;0.93;;;11.30;49.70;;;;;;10355711;28;20699;-71
2021/12/29 05:43:58;;;;;;;2.70;1.20;;;11.40;50.50;;;;;;10354492;28;20236;-71
2021/12/29 05:49:01;;;;;;;2.10;0.90;;;11.40;49.50;;;;;;10353817;28;20230;-71
2021/12/29 05:54:05;;;;;;;1.93;1.10;;;11.30;49.70;;;;;;10358191;28;20225;-71
2021/12/29 05:59:09;;;;;;;2.60;1.07;;;11.40;49.50;;;;;;10353883;28;20230;-71
2021/12/29 06:04:13;;;;;;;1.13;0.87;;;11.40;49.50;;;;;;10354083;28;20227;-71
2021/12/29 06:09:17;;;;;;;1.50;1.00;;;11.40;49.60;;;;;;10352505;28;20222;-71
2021/12/29 06:14:21;;;;;;;1.77;1.30;;;11.40;49.40;;;;;;10352044;28;20237;-71
2021/12/29 06:19:24;;;;;;;1.10;1.00;;;11.40;49.60;;;;;;10358465;28;20230;-71
2021/12/29 06:24:29;;;;;;;1.83;0.97;;;11.40;49.60;;;;;;10359061;28;20260;-71
2021/12/29 06:29:32;;;;;;;1.97;1.07;;;11.40;49.30;;;;;;10353864;28;20733;-71
2021/12/29 06:34:36;;;;;;;1.50;1.20;;;11.40;49.40;;;;;;10356133;28;20234;-71
2021/12/29 06:39:42;;;;;;;1.80;1.20;;;11.40;49.40;;;;;;10357732;28;20239;-71
2021/12/29 06:44:47;;;;;;;6.50;1.97;;;11.40;49.20;;;;;;10357670;28;20252;-71
2021/12/29 06:49:51;;;;;;;1.80;1.50;;;11.40;49.40;;;;;;10352225;28;20233;-71
2021/12/29 06:54:55;;;;;;;2.57;1.23;;;11.40;49.40;;;;;;10357600;28;20226;-71
2021/12/29 06:59:58;;;;;;;2.50;1.20;;;11.40;49.30;;;;;;10352617;28;20242;-71
2021/12/29 07:05:01;;;;;;;1.43;1.10;;;11.40;49.40;;;;;;10354847;28;20588;-71
2021/12/29 07:10:07;;;;;;;1.53;0.90;;;11.40;49.40;;;;;;10356797;28;20242;-71
2021/12/29 07:15:10;;;;;;;1.70;1.20;;;11.30;49.30;;;;;;10352548;28;20230;-71
2021/12/29 07:20:13;;;;;;;2.03;1.47;;;11.30;49.50;;;;;;10353182;28;20230;-71
2021/12/29 07:25:18;;;;;;;2.10;1.93;;;11.30;49.50;;;;;;10346124;28;20227;-71
2021/12/29 07:30:22;;;;;;;1.90;1.70;;;11.30;49.60;;;;;;10350152;28;20227;-71
2021/12/29 07:35:25;;;;;;;2.13;1.60;;;11.30;49.60;;;;;;10347894;28;20230;-71
2021/12/29 07:40:30;;;;;;;2.33;2.10;;;11.30;49.70;;;;;;10355938;28;20234;-71
2021/12/29 07:45:33;;;;;;;2.70;2.00;;;11.30;49.70;;;;;;10349716;28;20260;-72
2021/12/29 07:50:37;;;;;;;1.90;1.80;;;11.30;49.80;;;;;;10353282;28;20233;-71
2021/12/29 07:55:44;;;;;;;2.03;1.50;;;11.30;49.60;;;;;;10349648;28;20234;-71
2021/12/29 08:00:48;;;;;;;1.77;1.30;;;11.30;49.60;;;;;;10349585;28;20758;-71
2021/12/29 08:05:51;;;;;;;2.10;1.37;;;11.30;49.60;;;;;;10353988;28;20719;-71
2021/12/29 08:10:56;;;;;;;2.67;1.30;;;11.40;49.70;;;;;;10347688;28;20237;-72
2021/12/29 08:15:59;;;;;;;2.30;1.93;;;11.40;49.60;;;;;;10350290;28;20248;-71
2021/12/29 08:21:02;;;;;;;10.10;6.47;;;11.40;49.60;;;;;;10352924;28;20264;-76
2021/12/29 08:26:07;;;;;;;4.13;2.70;;;11.40;49.60;;;;;;10354086;28;20226;-77
2021/12/29 08:31:10;;;;;;;3.47;2.33;;;11.40;49.50;;;;;;10350637;28;20706;-77
2021/12/29 08:36:13;;;;;;;2.37;2.00;;;11.40;49.70;;;;;;10345625;28;20233;-77
2021/12/29 08:41:18;;;;;;;2.73;1.80;;;11.40;49.70;;;;;;10347043;28;20602;-77
2021/12/29 08:46:22;;;;;;;2.47;1.40;;;11.30;49.80;;;;;;10349156;28;20229;-77
2021/12/29 08:51:25;;;;;;;1.83;1.63;;;11.40;49.80;;;;;;10346807;28;20643;-77
2021/12/29 08:56:30;;;;;;;1.80;1.60;;;11.40;49.70;;;;;;10350315;28;20823;-77
2021/12/29 09:01:33;;;;;;;2.70;1.70;;;11.40;49.70;;;;;;10343726;28;20230;-77
2021/12/29 09:06:37;;;;;;;3.43;1.70;;;11.40;49.80;;;;;;10349086;28;20581;-77
2021/12/29 09:11:41;;;;;;;3.73;2.70;;;11.40;50.00;;;;;;10348565;28;20226;-77
2021/12/29 09:16:45;;;;;;;1.57;1.47;;;11.40;50.10;;;;;;10350495;28;20241;-77
2021/12/29 09:21:52;;;;;;;2.67;1.40;;;11.50;50.10;;;;;;10350763;28;20261;-76
2021/12/29 09:26:57;;;;;;;1.67;1.40;;;11.50;50.10;;;;;;10351253;28;20797;-76
2021/12/29 09:32:00;;;;;;;1.77;1.30;;;11.50;50.40;;;;;;10345307;28;20226;-76
2021/12/29 09:37:04;;;;;;;1.83;1.17;;;11.50;50.20;;;;;;10352296;28;20210;-76
2021/12/29 09:42:09;;;;;;;4.30;1.17;;;11.50;50.10;;;;;;10350137;28;20596;-75
2021/12/29 09:47:12;;;;;;;1.93;1.10;;;11.60;50.30;;;;;;10346734;28;20733;-76
2021/12/29 09:52:16;;;;;;;3.17;2.77;;;11.60;50.10;;;;;;10350427;28;20229;-76
2021/12/29 09:57:20;;;;;;;3.90;2.30;;;11.60;50.20;;;;;;10356416;28;20234;-76
2021/12/29 10:02:23;;;;;;;2.77;1.73;;;11.70;50.40;;;;;;10362978;28;20240;-76
2021/12/29 10:07:27;;;;;;;2.03;1.30;;;11.60;50.20;;;;;;10358019;28;20802;-76
2021/12/29 10:12:42;;;;;;;1.87;1.20;;;11.60;50.40;;;;;;10351335;28;20237;-76
2021/12/29 10:17:45;;;;;;;1.90;1.10;;;11.60;51.20;;;;;;10354928;28;20616;-76
2021/12/29 10:22:56;;;;;;;2.90;1.40;;;11.60;50.40;;;;;;10357216;28;20241;-76
2021/12/29 10:28:26;;;;;;;1.37;1.20;;;11.60;50.70;;;;;;10362439;28;20587;-76
2021/12/29 10:33:35;;;;;;;1.33;1.20;;;11.60;50.80;;;;;;10354093;28;20230;-77
2021/12/29 10:38:38;;;;;;;1.83;1.20;;;11.70;51.10;;;;;;10358520;28;20663;-76
2021/12/29 10:43:51;;;;;;;3.07;1.57;;;11.70;50.80;;;;;;10353956;28;20226;-77
2021/12/29 10:48:55;;;;;;;3.37;1.47;;;11.80;51.30;;;;;;10355200;28;20230;-77
2021/12/29 10:54:08;;;;;;;2.83;1.40;;;11.80;50.90;;;;;;10354135;28;20234;-76
2021/12/29 10:59:23;;;;;;;1.63;1.40;;;11.90;51.70;;;;;;10354409;28;20604;-77
2021/12/29 11:04:26;;;;;;;1.70;1.60;;;11.90;50.50;;;;;;10352752;28;20242;-77
2021/12/29 11:09:33;;;;;;;3.10;2.10;;;11.90;50.40;;;;;;10355170;28;20234;-77
2021/12/29 11:14:42;;;;;;;1.53;1.17;;;11.90;50.60;;;;;;10356997;28;20706;-76
2021/12/29 11:19:53;;;;;;;2.07;1.50;;;11.90;50.40;;;;;;10353443;28;20234;-76
2021/12/29 11:24:57;;;;;;;1.30;1.20;;;12.00;50.10;;;;;;10352254;28;20619;-77
2021/12/29 11:30:04;;;;;;;1.80;1.00;;;12.00;50.30;;;;;;10351540;28;20231;-76
2021/12/29 11:35:12;;;;;;;2.13;0.90;;;12.00;49.80;;;;;;10352482;28;20222;-76
2021/12/29 11:40:18;;;;;;;0.80;0.80;;;12.00;49.90;;;;;;10355229;28;20452;-76
2021/12/29 11:45:24;;;;;;;1.63;0.90;;;12.10;49.50;;;;;;10350822;28;20237;-77
2021/12/29 11:50:29;;;;;;;1.77;1.10;;;12.10;49.50;;;;;;10348271;28;20226;-77
2021/12/29 11:55:35;;;;;;;0.93;0.70;;;12.10;49.60;;;;;;10351178;28;20609;-77
2021/12/29 12:00:40;;;;;;;1.30;1.20;;;12.10;49.50;;;;;;10351970;28;20232;-77
2021/12/29 12:05:47;;;;;;;2.50;1.80;;;12.10;49.50;;;;;;10353324;28;20234;-77
2021/12/29 12:10:51;;;;;;;3.10;2.17;;;12.10;49.80;;;;;;10354307;28;20238;-77
2021/12/29 12:16:08;;;;;;;2.33;1.70;;;12.30;49.70;;;;;;10346108;28;20729;-77
2021/12/29 12:21:24;;;;;;;1.90;1.30;;;12.30;48.60;;;;;;10350569;28;20554;-77
2021/12/29 12:26:27;;;;;;;2.17;1.97;;;12.40;48.70;;;;;;10350358;28;20232;-77
2021/12/29 12:31:33;;;;;;;2.27;1.47;;;12.40;49.20;;;;;;10354065;28;20233;-77
2021/12/29 12:36:39;;;;;;;2.00;1.80;;;12.40;48.60;;;;;;10349631;28;20596;-77
2021/12/29 12:41:45;;;;;;;3.97;2.70;;;12.40;48.80;;;;;;10346772;28;20245;-77
2021/12/29 12:46:51;;;;;;;1.50;1.40;;;12.30;48.70;;;;;;10350015;28;20237;-77
2021/12/29 12:51:57;;;;;;;2.57;1.53;;;12.30;48.80;;;;;;10352409;28;20634;-77
2021/12/29 12:57:02;;;;;;;2.07;1.30;;;12.30;48.80;;;;;;10350609;28;20645;-77
2021/12/29 13:02:18;;;;;;;2.63;1.47;;;12.30;49.00;;;;;;10353208;28;20230;-77
2021/12/29 13:07:23;;;;;;;1.80;1.40;;;12.30;48.80;;;;;;10347209;28;20604;-77
2021/12/29 13:12:28;;;;;;;2.50;1.50;;;12.40;49.00;;;;;;10352989;28;20615;-77
2021/12/29 13:17:33;;;;;;;2.63;1.53;;;12.50;48.70;;;;;;10353864;28;20230;-77
2021/12/29 13:22:39;;;;;;;2.77;1.17;;;12.50;48.60;;;;;;10348328;28;20320;-77
2021/12/29 13:27:46;;;;;;;1.70;1.30;;;12.50;48.60;;;;;;10352733;28;20241;-77
2021/12/29 13:32:53;;;;;;;2.20;1.10;;;12.50;48.80;;;;;;10357433;28;20226;-77
2021/12/29 13:37:59;;;;;;;2.50;1.30;;;12.50;48.90;;;;;;10356404;28;20582;-77
2021/12/29 13:43:07;;;;;;;1.83;1.00;;;12.60;48.80;;;;;;10355785;28;20257;-76
2021/12/29 13:48:17;;;;;;;2.17;1.50;;;12.70;49.40;;;;;;10357360;28;20749;-77
2021/12/29 13:53:21;;;;;;;1.87;1.30;;;12.80;48.40;;;;;;10356713;28;20223;-77
2021/12/29 13:58:25;;;;;;;3.20;1.80;;;12.80;48.60;;;;;;10357999;28;20592;-77
2021/12/29 14:03:30;;;;;;;3.30;2.10;;;12.90;48.50;;;;;;10357361;28;20226;-77
2021/12/29 14:08:35;;;;;;;4.13;3.00;;;12.90;48.40;;;;;;10353860;28;20249;-77
2021/12/29 14:13:44;;;;;;;3.73;2.43;;;12.90;48.40;;;;;;10355297;28;20233;-77
2021/12/29 14:18:54;;;;;;;3.50;1.97;;;13.00;48.50;;;;;;10361475;28;20234;-71
2021/12/29 14:24:00;;;;;;;3.17;2.00;;;13.00;48.20;;;;;;10352886;28;20225;-71
2021/12/29 14:29:05;;;;;;;3.50;2.10;;;13.00;48.50;;;;;;10358197;28;20219;-71
2021/12/29 14:34:11;;;;;;;5.00;2.60;;;13.00;48.40;;;;;;10353455;28;20226;-71
2021/12/29 14:39:18;;;;;;;6.37;4.70;;;12.90;48.10;;;;;;10351084;28;20570;-72
2021/12/29 14:44:21;;;;;;;6.10;3.40;;;12.90;48.20;;;;;;10352381;28;20252;-71
2021/12/29 14:49:29;;;;;;;2.10;1.83;;;12.90;48.30;;;;;;10354189;28;20226;-71
2021/12/29 14:54:34;;;;;;;4.23;2.97;;;12.90;48.00;;;;;;10354265;28;20244;-71
2021/12/29 14:59:37;;;;;;;3.83;3.40;;;12.80;48.30;;;;;;10348447;28;20234;-71
2021/12/29 15:04:44;;;;;;;3.57;2.50;;;12.80;48.20;;;;;;10350667;28;20611;-71
2021/12/29 15:09:59;;;;;;;6.10;5.33;;;12.80;48.00;;;;;;10354976;28;20241;-71
2021/12/29 15:15:17;;;;;;;2.60;2.40;;;12.80;47.70;;;;;;10351527;28;20231;-72
2021/12/29 15:20:22;;;;;;;7.70;5.50;;;12.70;47.50;;;;;;10347736;28;20226;-71
2021/12/29 15:25:25;;;;;;;8.50;6.40;;;12.70;47.60;;;;;;10347595;28;20235;-71
2021/12/29 15:30:31;;;;;;;4.83;3.20;;;12.70;47.70;;;;;;10347245;28;20604;-71
2021/12/29 15:35:36;;;;;;;4.33;2.10;;;12.70;47.30;;;;;;10351877;28;20230;-71
2021/12/29 15:40:40;;;;;;;3.20;1.80;;;12.60;47.10;;;;;;10354329;28;21188;-71
2021/12/29 15:45:43;;;;;;;3.23;1.70;;;12.50;47.30;;;;;;10350226;28;20237;-71
2021/12/29 15:50:48;;;;;;;3.50;2.20;;;12.40;47.30;;;;;;10352098;28;20646;-71
2021/12/29 15:55:52;;;;;;;2.97;1.80;;;12.30;47.10;;;;;;10353761;28;20231;-71
2021/12/29 16:00:55;;;;;;;3.87;2.20;;;12.30;47.20;;;;;;10353045;28;20245;-71
2021/12/29 16:06:06;;;;;;;6.20;3.23;;;12.20;47.30;;;;;;10359547;28;20805;-71
2021/12/29 16:11:09;;;;;;;5.57;3.90;;;12.20;47.00;;;;;;10351265;28;20226;-71
2021/12/29 16:16:14;;;;;;;6.57;3.70;;;12.20;47.20;;;;;;10350975;28;20231;-71
2021/12/29 16:21:19;;;;;;;6.60;4.27;;;12.10;47.00;;;;;;10349493;28;20230;-72
2021/12/29 16:26:22;;;;;;;8.83;4.47;;;12.00;46.90;;;;;;10354143;28;20725;-71
2021/12/29 16:31:25;;;;;;;3.50;2.93;;;11.90;47.10;;;;;;10354758;28;20230;-71
2021/12/29 16:36:30;;;;;;;3.33;2.20;;;11.90;47.20;;;;;;10348976;28;20233;-71
2021/12/29 16:41:34;;;;;;;2.43;2.00;;;11.90;47.00;;;;;;10349371;28;20230;-72
2021/12/29 16:46:37;;;;;;;2.70;2.40;;;11.80;46.80;;;;;;10349084;28;20718;-71
2021/12/29 16:51:42;;;;;;;3.70;3.00;;;11.80;46.90;;;;;;10351110;28;20288;-71
2021/12/29 16:56:45;;;;;;;4.23;3.37;;;11.80;46.70;;;;;;10352855;28;20606;-71
2021/12/29 17:01:48;;;;;;;2.80;2.57;;;11.90;46.80;;;;;;10358101;28;20245;-71
2021/12/29 17:06:53;;;;;;;3.33;3.00;;;11.80;46.70;;;;;;10366022;28;20235;-72
2021/12/29 17:11:57;;;;;;;1.80;1.70;;;11.70;46.60;;;;;;10365035;28;20238;-72
2021/12/29 17:17:00;;;;;;;2.57;2.37;;;11.70;47.00;;;;;;10365301;28;20234;-71
2021/12/29 17:22:06;;;;;;;3.00;2.30;;;11.60;46.90;;;;;;10358388;28;20281;-71
2021/12/29 17:27:10;;;;;;;3.10;2.50;;;11.70;46.70;;;;;;10362082;28;20233;-72
2021/12/29 17:32:13;;;;;;;3.77;3.00;;;11.60;47.00;;;;;;10358322;28;20234;-71
2021/12/29 17:37:17;;;;;;;4.57;4.17;;;11.60;46.90;;;;;;10362621;28;20231;-71
2021/12/29 17:42:21;;;;;;;6.30;5.73;;;11.60;46.70;;;;;;10363206;28;20241;-71
2021/12/29 17:47:24;;;;;;;6.07;5.57;;;11.60;46.80;;;;;;10358815;28;20234;-71
2021/12/29 17:52:29;;;;;;;5.77;4.87;;;11.50;46.90;;;;;;10361555;28;20234;-71
2021/12/29 17:57:32;;;;;;;5.47;4.50;;;11.40;47.00;;;;;;10360856;28;20229;-71
2021/12/29 18:02:35;;;;;;;5.40;4.90;;;11.40;47.10;;;;;;10364498;28;20528;-71
2021/12/29 18:07:40;;;;;;;13.00;11.70;;;11.30;47.00;;;;;;10365051;28;20568;-71
2021/12/29 18:12:44;;;;;;;11.27;10.20;;;11.30;47.10;;;;;;10354889;28;20222;-71
2021/12/29 18:17:47;;;;;;;42.67;38.80;;;11.30;47.20;;;;;;10357246;28;20230;-71
2021/12/29 18:22:52;;;;;;;40.10;35.87;;;11.30;47.30;;;;;;10353972;28;20254;-71
2021/12/29 18:27:57;;;;;;;10.93;9.83;;;11.20;47.30;;;;;;10355380;28;20222;-71
2021/12/29 18:33:00;;;;;;;11.83;10.73;;;11.20;47.40;;;;;;10353926;28;20249;-71
2021/12/29 18:38:06;;;;;;;6.80;6.10;;;11.20;47.60;;;;;;10354608;28;20219;-71
2021/12/29 18:43:10;;;;;;;6.60;6.00;;;11.10;47.60;;;;;;10356302;28;20226;-71
2021/12/29 18:48:13;;;;;;;6.43;5.87;;;11.20;47.80;;;;;;10356148;28;20246;-71
2021/12/29 18:53:17;;;;;;;5.47;5.00;;;11.20;47.90;;;;;;10353141;28;20223;-71
2021/12/29 18:58:21;;;;;;;5.03;4.63;;;11.20;47.80;;;;;;10349921;28;20817;-71
2021/12/29 19:03:25;;;;;;;4.80;4.40;;;11.30;48.00;;;;;;10352496;28;20238;-71
2021/12/29 19:08:30;;;;;;;3.93;3.57;;;11.20;48.00;;;;;;10352923;28;20230;-71
2021/12/29 19:13:33;;;;;;;3.10;2.80;;;11.30;48.10;;;;;;10358107;28;20601;-71
2021/12/29 19:18:36;;;;;;;3.50;3.20;;;11.30;48.10;;;;;;10357903;28;20235;-71
2021/12/29 19:23:41;;;;;;;5.00;4.60;;;11.30;48.20;;;;;;10347063;28;20246;-71
2021/12/29 19:28:46;;;;;;;6.50;5.33;;;11.20;48.40;;;;;;10351935;28;20238;-71
2021/12/29 19:33:49;;;;;;;5.50;5.00;;;11.20;48.30;;;;;;10354272;28;20229;-71
2021/12/29 19:38:54;;;;;;;6.27;5.67;;;11.20;48.40;;;;;;10352332;28;20237;-71
2021/12/29 19:43:57;;;;;;;5.30;4.80;;;11.20;48.60;;;;;;10354143;28;20240;-71
2021/12/29 19:49:00;;;;;;;4.97;4.47;;;11.20;48.50;;;;;;10352498;28;20227;-71
2021/12/29 19:54:05;;;;;;;9.63;7.40;;;11.20;48.70;;;;;;10348938;28;20309;-71
2021/12/29 19:59:09;;;;;;;6.03;5.43;;;11.10;49.00;;;;;;10349381;28;20550;-71
2021/12/29 20:04:15;;;;;;;5.90;5.40;;;11.20;49.00;;;;;;10355779;28;20230;-71
2021/12/29 20:09:20;;;;;;;8.27;7.50;;;11.20;48.90;;;;;;10352462;28;20218;-71
2021/12/29 20:14:23;;;;;;;4.80;4.40;;;11.20;49.10;;;;;;10353577;28;20237;-71
2021/12/29 20:19:27;;;;;;;7.03;6.37;;;11.20;48.90;;;;;;10349819;28;20313;-76
2021/12/29 20:24:32;;;;;;;9.97;9.17;;;11.20;49.10;;;;;;10346743;28;20238;-76
2021/12/29 20:29:38;;;;;;;6.10;5.50;;;11.20;49.40;;;;;;10353694;28;20314;-77
2021/12/29 20:34:41;;;;;;;5.90;5.03;;;11.20;49.20;;;;;;10351421;28;20226;-77
2021/12/29 20:39:46;;;;;;;3.97;3.67;;;11.20;49.20;;;;;;10351988;28;20234;-76
2021/12/29 20:44:50;;;;;;;4.60;4.30;;;11.20;49.50;;;;;;10344345;28;20228;-76
2021/12/29 20:49:53;;;;;;;4.30;3.97;;;11.20;49.40;;;;;;10348498;28;20226;-76
2021/12/29 20:54:57;;;;;;;4.27;3.97;;;11.10;49.40;;;;;;10346358;28;20422;-76
2021/12/29 21:00:00;;;;;;;4.30;4.00;;;11.10;49.80;;;;;;10348425;28;20238;-76
2021/12/29 21:05:06;;;;;;;6.87;6.27;;;11.10;49.70;;;;;;10348735;28;20322;-76
2021/12/29 21:10:18;;;;;;;7.30;6.70;;;11.10;50.00;;;;;;10343581;28;20230;-76
2021/12/29 21:15:27;;;;;;;5.20;4.70;;;11.00;50.20;;;;;;10336743;28;20262;-76
2021/12/29 21:20:31;;;;;;;7.53;6.93;;;11.10;50.30;;;;;;10338492;28;21448;-76
2021/12/29 21:25:39;;;;;;;7.70;7.00;;;11.10;50.20;;;;;;10338008;28;20233;-76
2021/12/29 21:30:42;;;;;;;6.10;5.60;;;11.10;50.60;;;;;;10336918;28;20223;-76
2021/12/29 21:35:45;;;;;;;6.67;6.07;;;11.10;50.20;;;;;;10338193;28;20250;-77
2021/12/29 21:40:49;;;;;;;16.13;14.43;;;11.20;50.30;;;;;;10337158;28;20242;-77
2021/12/29 21:45:56;;;;;;;18.10;16.20;;;11.20;50.40;;;;;;10338359;28;20230;-77
2021/12/29 21:51:03;;;;;;;14.23;12.93;;;11.20;50.20;;;;;;10347199;28;20288;-76
2021/12/29 21:56:09;;;;;;;6.97;6.40;;;11.20;50.50;;;;;;10343938;28;20241;-77
2021/12/29 22:01:12;;;;;;;5.60;5.20;;;11.30;50.50;;;;;;10345681;28;20218;-76
2021/12/29 22:06:16;;;;;;;7.03;6.43;;;11.30;50.30;;;;;;10345711;28;20234;-76
2021/12/29 22:11:21;;;;;;;43.13;39.63;;;11.30;50.30;;;;;;10347585;28;20229;-77
2021/12/29 22:16:24;;;;;;;8.40;7.73;;;11.40;50.70;;;;;;10352564;28;20230;-76
2021/12/29 22:21:27;;;;;;;25.40;23.40;;;11.40;50.30;;;;;;10350122;28;20647;-77
2021/12/29 22:26:32;;;;;;;21.37;19.63;;;11.40;50.30;;;;;;10359213;28;20234;-76
2021/12/29 22:31:35;;;;;;;6.67;6.10;;;11.40;50.60;;;;;;10355738;28;20728;-76
2021/12/29 22:36:38;;;;;;;7.43;6.93;;;11.40;50.40;;;;;;10353458;28;20714;-76
2021/12/29 22:41:44;;;;;;;4.17;3.80;;;11.50;50.40;;;;;;10350804;28;20241;-76
2021/12/29 22:46:48;;;;;;;2.07;1.77;;;11.50;51.10;;;;;;10354383;28;20230;-76
2021/12/29 22:51:51;;;;;;;1.43;1.33;;;11.50;51.30;;;;;;10348479;28;20237;-76
2021/12/29 22:56:57;;;;;;;0.90;0.90;;;11.60;51.80;;;;;;10354369;28;20241;-76
2021/12/29 23:02:00;;;;;;;0.70;0.70;;;11.60;52.70;;;;;;10352571;28;20243;-77
2021/12/29 23:07:04;;;;;;;0.80;0.80;;;11.70;52.30;;;;;;10354789;28;20626;-76
2021/12/29 23:12:10;;;;;;;0.80;0.80;;;11.80;52.30;;;;;;10351632;28;20242;-76
2021/12/29 23:17:16;;;;;;;0.70;0.70;;;11.90;53.00;;;;;;10357877;28;20234;-76
2021/12/29 23:22:19;;;;;;;0.80;0.80;;;12.00;52.30;;;;;;10352547;28;20804;-77
2021/12/29 23:32:45;;;;;;;0.80;0.80;;;12.10;52.90;;;;;;10352470;28;20780;-76
2021/12/29 23:37:48;;;;;;;0.90;0.90;;;12.20;52.40;;;;;;10354859;28;20737;-77
2021/12/29 23:42:53;;;;;;;0.70;0.70;;;12.20;52.50;;;;;;10352817;28;20237;-76
2021/12/29 23:47:56;;;;;;;0.70;0.70;;;12.30;53.00;;;;;;10350499;28;21220;-77
2021/12/29 23:52:59;;;;;;;0.70;0.70;;;12.40;52.60;;;;;;10353071;28;20229;-76
2021/12/29 23:58:06;;;;;;;0.67;0.67;;;12.40;52.50;;;;;;10348577;28;20234;-76
